createdAt,value
2023-01-07T00:02:19.529Z,0
2023-01-07T00:07:38.973Z,0
2023-01-07T00:12:57.820Z,0
2023-01-07T00:18:17.453Z,0
2023-01-07T00:23:36.850Z,0
2023-01-07T00:34:15.399Z,0
2023-01-07T00:39:34.510Z,0
2023-01-07T00:44:53.643Z,0
2023-01-07T00:50:12.719Z,0
2023-01-07T00:55:32.875Z,0
2023-01-07T01:00:52.327Z,0
2023-01-07T01:06:10.591Z,0
2023-01-07T01:11:39.294Z,0
2023-01-07T01:16:49.858Z,0
2023-01-07T01:22:09.038Z,0
2023-01-07T01:32:47.561Z,0
2023-01-07T01:38:06.609Z,0
2023-01-07T01:43:25.910Z,0
2023-01-07T01:48:45.175Z,0
2023-01-07T01:54:04.190Z,0
2023-01-07T01:59:23.839Z,0
2023-01-07T02:04:42.820Z,0
2023-01-07T02:15:21.096Z,0
2023-01-07T02:20:41.404Z,0
2023-01-07T02:26:00.925Z,0
2023-01-07T02:31:20.600Z,0
2023-01-07T02:36:40.231Z,0
2023-01-07T02:41:58.518Z,0
2023-01-07T02:47:17.489Z,0
2023-01-07T02:57:55.833Z,0
2023-01-07T03:03:14.902Z,0
2023-01-07T03:08:35.350Z,0
2023-01-07T03:13:54.277Z,0
2023-01-07T03:19:13.123Z,0
2023-01-07T03:24:32.259Z,0
2023-01-07T03:29:51.681Z,0
2023-01-07T03:40:30.341Z,0
2023-01-07T03:45:50.093Z,0
2023-01-07T03:56:27.689Z,0
2023-01-07T04:01:47.194Z,0
2023-01-07T04:07:06.658Z,0
2023-01-07T04:12:25.948Z,0
2023-01-07T04:23:04.959Z,0
2023-01-07T04:28:23.537Z,0
2023-01-07T04:33:42.787Z,0
2023-01-07T04:39:01.572Z,0
2023-01-07T04:44:21.614Z,0
2023-01-07T04:49:41.055Z,0
2023-01-07T04:55:00.430Z,0
2023-01-07T05:00:19.138Z,0
2023-01-07T05:05:38.299Z,0
2023-01-07T05:10:57.104Z,0
2023-01-07T05:11:22.166Z,0
2023-01-07T05:16:42.043Z,0
2023-01-07T05:22:01.024Z,0
2023-01-07T05:27:19.888Z,0
2023-01-07T05:32:39.460Z,0
2023-01-07T05:37:59.100Z,0
2023-01-07T05:43:18.298Z,0
2023-01-07T05:48:38.030Z,0
2023-01-07T05:53:57.699Z,0
2023-01-07T05:59:17.185Z,0
2023-01-07T06:04:36.072Z,0
2023-01-07T06:09:55.235Z,0
2023-01-07T06:15:14.387Z,0
2023-01-07T06:20:33.667Z,0
2023-01-07T06:31:12.968Z,0
2023-01-07T06:36:32.421Z,0
2023-01-07T06:41:51.377Z,0
2023-01-07T06:47:10.253Z,0
2023-01-07T06:52:29.463Z,0
2023-01-07T06:57:48.303Z,0
2023-01-07T07:03:07.192Z,0
2023-01-07T07:13:45.668Z,0.006
2023-01-07T07:19:04.851Z,0.009
2023-01-07T07:24:24.267Z,0.0173
2023-01-07T07:29:43.205Z,0.0262
2023-01-07T07:35:02.324Z,0.0294
2023-01-07T07:40:22.269Z,0.0297
2023-01-07T07:45:40.690Z,0.0299
2023-01-07T07:56:19.651Z,0.0351
2023-01-07T08:01:39.385Z,0.0395
2023-01-07T08:06:57.934Z,0.0371
2023-01-07T08:12:16.919Z,0.0426
2023-01-07T08:17:36.175Z,0.0462
2023-01-07T08:22:55.514Z,0.0444
2023-01-07T08:28:14.334Z,0.0496
2023-01-07T08:33:33.828Z,0.0497
2023-01-07T08:38:53.172Z,0.0531
2023-01-07T08:44:11.843Z,0.0556
2023-01-07T08:54:50.285Z,0.0582
2023-01-07T09:00:09.148Z,0.0641
2023-01-07T09:05:27.931Z,0.0633
2023-01-07T09:10:46.988Z,0.0639
2023-01-07T09:16:06.846Z,0.0739
2023-01-07T09:21:26.074Z,0.0743
2023-01-07T09:26:45.047Z,0.0809
2023-01-07T09:32:04.279Z,0.0798
2023-01-07T09:37:23.516Z,0.0856
2023-01-07T09:42:42.357Z,0.0907
2023-01-07T09:48:01.428Z,0.1021
2023-01-07T09:53:20.912Z,0.1057
2023-01-07T09:58:39.883Z,0.1018
2023-01-07T10:04:07.004Z,0.1011
2023-01-07T10:09:18.613Z,0.0984
2023-01-07T10:19:57.359Z,0.0836
2023-01-07T10:25:16.415Z,0.0831
2023-01-07T10:30:36.301Z,0.0814
2023-01-07T10:35:57.199Z,0.0816
2023-01-07T10:41:14.461Z,0.0738
2023-01-07T10:46:33.804Z,0.0705
2023-01-07T10:51:53.304Z,0.0783
2023-01-07T11:02:30.866Z,0.0887
2023-01-07T11:07:50.077Z,0.0858
2023-01-07T11:13:09.196Z,0.0905
2023-01-07T11:18:27.976Z,0.0897
2023-01-07T11:23:47.177Z,0.1076
2023-01-07T11:29:06.821Z,0.1592
2023-01-07T11:34:27.001Z,0.1801
2023-01-07T11:39:45.866Z,0.1759
2023-01-07T11:45:05.411Z,0.1644
2023-01-07T11:50:24.335Z,0.1541
2023-01-07T12:01:03.243Z,0.1173
2023-01-07T12:06:21.933Z,0.1293
2023-01-07T12:11:41.266Z,0.1567
2023-01-07T12:17:00.153Z,0.3167
2023-01-07T12:22:19.322Z,0.4215
2023-01-07T12:27:38.395Z,0.2054
2023-01-07T12:32:57.443Z,0.3881
2023-01-07T12:43:35.906Z,0.193
2023-01-07T12:48:55.160Z,0.1441
2023-01-07T12:54:14.492Z,0.1808
2023-01-07T12:59:45.270Z,0.1703
2023-01-07T13:06:08.149Z,0.1865
2023-01-07T13:10:14.137Z,0.1516
2023-01-07T13:15:33.552Z,0.164
2023-01-07T13:20:53.117Z,0.1722
2023-01-07T13:26:12.211Z,0.1949
2023-01-07T13:36:51.104Z,0.1985
2023-01-07T13:42:10.545Z,0.2416
2023-01-07T13:47:29.890Z,0.2211
2023-01-07T13:52:49.324Z,0.1758
2023-01-07T14:03:27.196Z,0.1399
2023-01-07T14:08:45.926Z,0.142
2023-01-07T14:19:23.763Z,0.1304
2023-01-07T14:24:43.325Z,0.1252
2023-01-07T14:30:15.611Z,0.1162
2023-01-07T14:35:22.261Z,0.0982
2023-01-07T14:40:40.234Z,0.0797
2023-01-07T14:45:59.293Z,0.0772
2023-01-07T14:51:18.328Z,0.0709
2023-01-07T15:01:56.860Z,0.0508
2023-01-07T15:07:16.203Z,0.0498
2023-01-07T15:17:54.202Z,0.0501
2023-01-07T15:23:13.358Z,0.0459
2023-01-07T15:29:47.499Z,0.0374
2023-01-07T15:33:52.627Z,0.035
2023-01-07T15:44:31.243Z,0.0227
2023-01-07T15:49:50.567Z,0.0084
2023-01-07T16:00:29.219Z,0
2023-01-07T16:05:49.027Z,0
2023-01-07T16:11:08.689Z,0
2023-01-07T16:16:27.538Z,0
2023-01-07T16:21:46.759Z,0
2023-01-07T16:27:05.660Z,0
2023-01-07T16:32:24.396Z,0
2023-01-07T16:43:02.927Z,0
2023-01-07T16:48:22.478Z,0
2023-01-07T16:53:42.241Z,0
2023-01-07T16:59:01.259Z,0
2023-01-07T17:04:21.520Z,0
2023-01-07T17:09:40.538Z,0
2023-01-07T17:14:59.165Z,0
2023-01-07T17:25:38.243Z,0
2023-01-07T17:30:57.446Z,0
2023-01-07T17:36:16.384Z,0
2023-01-07T17:41:36.128Z,0
2023-01-07T17:46:55.529Z,0
2023-01-07T17:52:15.790Z,0
2023-01-07T17:57:34.861Z,0
2023-01-07T18:04:10.192Z,0
2023-01-07T18:08:13.230Z,0
2023-01-07T18:13:31.929Z,0
2023-01-07T18:18:50.786Z,0
2023-01-07T18:24:09.717Z,0
2023-01-07T18:29:28.736Z,0
2023-01-07T18:34:48.762Z,0
2023-01-07T18:40:08.164Z,0
2023-01-07T18:45:27.137Z,0
2023-01-07T18:50:45.925Z,0
2023-01-07T18:56:04.806Z,0
2023-01-07T19:06:43.809Z,0
2023-01-07T19:12:03.953Z,0
2023-01-07T19:17:23.106Z,0
2023-01-07T19:22:42.685Z,0
2023-01-07T19:28:01.587Z,0
2023-01-07T19:33:21.089Z,0
2023-01-07T19:38:40.311Z,0
2023-01-07T19:43:59.618Z,0
2023-01-07T19:49:18.963Z,0
2023-01-07T19:54:38.531Z,0
2023-01-07T19:59:58.022Z,0
2023-01-07T20:05:17.137Z,0
2023-01-07T20:10:36.508Z,0
2023-01-07T20:26:34.465Z,0
2023-01-07T20:31:52.457Z,0
2023-01-07T20:37:11.135Z,0
2023-01-07T20:42:29.992Z,0
2023-01-07T20:47:49.360Z,0
2023-01-07T20:53:08.470Z,0
2023-01-07T20:58:28.018Z,0
2023-01-07T21:09:06.472Z,0
2023-01-07T21:14:25.752Z,0
2023-01-07T21:19:45.086Z,0
2023-01-07T21:25:14.107Z,0
2023-01-07T21:30:23.568Z,0
2023-01-07T21:35:42.726Z,0
2023-01-07T21:41:01.689Z,0
2023-01-07T21:51:40.375Z,0
2023-01-07T21:57:00.003Z,0
2023-01-07T22:02:19.626Z,0
2023-01-07T22:07:38.517Z,0
2023-01-07T22:12:57.446Z,0
2023-01-07T22:18:17.040Z,0
2023-01-07T22:23:37.345Z,0
2023-01-07T22:34:15.345Z,0
2023-01-07T22:39:34.799Z,0
2023-01-07T22:44:54.373Z,0
2023-01-07T22:50:13.388Z,0
2023-01-07T22:55:59.071Z,0
2023-01-07T23:06:37.308Z,0
2023-01-07T23:11:57.064Z,0
2023-01-07T23:22:35.947Z,0
2023-01-07T23:27:55.218Z,0
2023-01-07T23:33:14.529Z,0
2023-01-07T23:38:34.201Z,0
2023-01-07T23:50:27.501Z,0
2023-01-07T23:54:32.200Z,0
2023-01-07T23:59:51.043Z,0
